createdAt,value
2023-03-27T00:02:51.299Z,9.23
2023-03-27T00:07:58.385Z,7.10
2023-03-27T00:13:05.729Z,4.46
2023-03-27T00:18:12.876Z,5.39
2023-03-27T00:23:20.283Z,5.55
2023-03-27T00:28:27.488Z,10.60
2023-03-27T00:33:34.911Z,10.19
2023-03-27T00:38:42.232Z,11.54
2023-03-27T00:43:49.671Z,14.05
2023-03-27T00:48:56.811Z,12.66
2023-03-27T00:54:04.173Z,10.43
2023-03-27T00:59:11.476Z,15.24
2023-03-27T01:04:18.912Z,12.24
2023-03-27T01:09:26.255Z,10.73
2023-03-27T01:14:33.654Z,11.75
2023-03-27T01:19:40.941Z,12.37
2023-03-27T01:24:48.206Z,8.40
2023-03-27T01:29:55.495Z,10.84
2023-03-27T01:35:03.708Z,9.82
2023-03-27T01:40:09.685Z,11.21
2023-03-27T01:45:17.092Z,8.19
2023-03-27T01:50:24.299Z,7.99
2023-03-27T01:55:31.717Z,9.19
2023-03-27T02:00:51.636Z,8.56
2023-03-27T02:05:45.833Z,9.83
2023-03-27T02:10:53.098Z,8.84
2023-03-27T02:16:00.614Z,8.46
2023-03-27T02:21:07.925Z,8.30
2023-03-27T02:26:15.281Z,7.85
2023-03-27T02:31:31.820Z,16.82
2023-03-27T02:36:29.639Z,15.12
2023-03-27T02:41:36.904Z,11.97
2023-03-27T02:46:44.429Z,12.61
2023-03-27T02:51:54.323Z,9.20
2023-03-27T02:57:01.803Z,11.68
2023-03-27T03:02:08.991Z,10.57
2023-03-27T03:07:16.405Z,13.94
2023-03-27T03:12:23.691Z,7.95
2023-03-27T03:17:31.149Z,7.83
2023-03-27T03:22:38.386Z,9.18
2023-03-27T03:27:45.834Z,21.04
2023-03-27T03:32:53.032Z,22.00
2023-03-27T03:38:00.437Z,14.40
2023-03-27T03:43:07.636Z,10.83
2023-03-27T03:48:15.299Z,12.87
2023-03-27T03:53:22.617Z,10.58
2023-03-27T03:58:34.180Z,12.07
2023-03-27T04:03:36.800Z,10.35
2023-03-27T04:08:44.324Z,9.41
2023-03-27T04:13:51.624Z,8.99
2023-03-27T04:18:59.159Z,8.33
2023-03-27T04:24:06.462Z,10.94
2023-03-27T04:29:14.966Z,7.97
2023-03-27T04:34:22.274Z,7.03
2023-03-27T04:39:29.644Z,5.71
2023-03-27T04:44:36.992Z,6.68
2023-03-27T04:49:44.348Z,11.02
2023-03-27T04:54:51.531Z,14.98
2023-03-27T04:59:59.205Z,23.68
2023-03-27T05:05:06.553Z,16.69
2023-03-27T05:10:14.110Z,16.49
2023-03-27T05:15:21.306Z,20.93
2023-03-27T05:20:28.724Z,15.39
2023-03-27T05:25:35.896Z,28.55
2023-03-27T05:30:43.369Z,22.13
2023-03-27T05:35:50.736Z,17.29
2023-03-27T05:40:58.189Z,20.46
2023-03-27T05:46:05.326Z,21.85
2023-03-27T05:51:12.634Z,27.06
2023-03-27T05:56:19.869Z,18.01
2023-03-27T06:01:27.189Z,23.54
2023-03-27T06:06:34.864Z,27.07
2023-03-27T06:11:42.180Z,20.15
2023-03-27T06:16:49.463Z,16.02
2023-03-27T06:21:56.875Z,9.69
2023-03-27T06:27:04.314Z,9.43
2023-03-27T06:32:11.860Z,9.02
2023-03-27T06:37:19.252Z,16.02
2023-03-27T06:42:27.048Z,12.27
2023-03-27T06:47:38.569Z,10.50
2023-03-27T06:52:41.256Z,15.49
2023-03-27T06:57:48.518Z,7.75
2023-03-27T07:02:56.012Z,6.15
2023-03-27T07:08:14.871Z,9.50
2023-03-27T07:13:10.780Z,5.56
2023-03-27T07:18:18.076Z,6.68
2023-03-27T07:23:25.407Z,8.45
2023-03-27T07:28:32.795Z,10.74
2023-03-27T07:33:40.172Z,9.57
2023-03-27T07:38:47.339Z,7.47
2023-03-27T07:43:54.707Z,4.52
2023-03-27T07:49:02.227Z,6.76
2023-03-27T07:54:09.606Z,3.56
2023-03-27T07:59:16.859Z,6.25
2023-03-27T08:04:24.293Z,3.57
2023-03-27T08:09:31.359Z,2.48
2023-03-27T08:14:38.712Z,4.21
2023-03-27T08:19:46.001Z,2.51
2023-03-27T08:24:53.426Z,3.52
2023-03-27T08:30:00.722Z,4.51
2023-03-27T08:35:09.350Z,2.40
2023-03-27T08:40:16.729Z,4.40
2023-03-27T08:45:24.249Z,3.91
2023-03-27T08:50:31.523Z,3.25
2023-03-27T08:55:38.755Z,4.17
2023-03-27T09:00:45.921Z,2.87
2023-03-27T09:05:53.197Z,3.97
2023-03-27T09:11:00.603Z,4.07
2023-03-27T09:16:08.016Z,3.83
2023-03-27T09:21:15.136Z,7.34
2023-03-27T09:26:22.518Z,4.33
2023-03-27T09:31:29.738Z,4.28
2023-03-27T09:36:36.962Z,5.79
2023-03-27T09:41:44.199Z,4.45
2023-03-27T09:46:51.560Z,4.49
2023-03-27T09:51:58.787Z,4.30
2023-03-27T09:57:06.290Z,5.58
2023-03-27T10:02:13.512Z,7.65
2023-03-27T10:07:20.857Z,7.23
2023-03-27T10:12:28.068Z,5.77
2023-03-27T10:17:35.539Z,4.40
2023-03-27T10:22:42.727Z,2.37
2023-03-27T10:27:50.095Z,4.53
2023-03-27T10:32:57.364Z,5.59
2023-03-27T10:38:04.684Z,3.37
2023-03-27T10:43:12.793Z,3.93
2023-03-27T10:48:19.882Z,3.67
2023-03-27T10:53:26.170Z,4.40
2023-03-27T10:58:33.428Z,5.08
2023-03-27T11:03:40.527Z,3.01
2023-03-27T11:08:47.877Z,3.25
2023-03-27T11:13:55.052Z,4.49
2023-03-27T11:19:02.349Z,3.88
2023-03-27T11:24:09.587Z,5.26
2023-03-27T11:29:16.905Z,3.70
2023-03-27T11:34:29.006Z,7.86
2023-03-27T11:39:31.024Z,2.97
2023-03-27T11:44:38.320Z,3.64
2023-03-27T11:49:45.955Z,3.85
2023-03-27T11:54:53.261Z,3.57
2023-03-27T12:00:00.590Z,4.18
2023-03-27T12:05:07.835Z,3.42
2023-03-27T12:10:15.106Z,4.22
2023-03-27T12:15:22.352Z,2.74
2023-03-27T12:20:29.641Z,1.57
2023-03-27T12:25:36.835Z,1.72
2023-03-27T12:30:44.113Z,5.43
2023-03-27T12:35:51.318Z,4.12
2023-03-27T12:40:58.770Z,3.26
2023-03-27T12:46:06.037Z,2.07
2023-03-27T12:51:12.650Z,4.32
2023-03-27T12:56:19.954Z,4.80
2023-03-27T13:01:27.271Z,2.24
2023-03-27T13:06:34.479Z,1.90
2023-03-27T13:11:41.803Z,4.07
2023-03-27T13:16:49.149Z,3.69
2023-03-27T13:21:56.524Z,5.37
2023-03-27T13:27:03.663Z,2.40
2023-03-27T13:32:12.135Z,3.19
2023-03-27T13:37:19.285Z,2.23
2023-03-27T13:42:22.030Z,2.67
2023-03-27T13:47:29.307Z,4.11
2023-03-27T13:52:36.736Z,2.98
2023-03-27T13:57:43.886Z,1.85
2023-03-27T14:02:51.512Z,2.88
2023-03-27T14:07:59.115Z,2.65
2023-03-27T14:13:06.578Z,2.20
2023-03-27T14:18:13.900Z,6.27
2023-03-27T14:23:21.423Z,5.83
2023-03-27T14:28:28.084Z,2.82
2023-03-27T14:33:35.543Z,2.35
2023-03-27T14:38:42.994Z,1.49
2023-03-27T14:43:50.348Z,1.59
2023-03-27T14:48:57.499Z,2.35
2023-03-27T14:54:04.777Z,4.85
2023-03-27T14:59:11.931Z,2.27
2023-03-27T15:04:22.020Z,4.42
2023-03-27T15:09:19.501Z,3.01
2023-03-27T15:14:26.875Z,1.20
2023-03-27T15:19:34.318Z,1.26
2023-03-27T15:24:41.760Z,1.40
2023-03-27T15:29:48.914Z,1.58
2023-03-27T15:34:56.376Z,2.62
2023-03-27T15:40:03.664Z,2.62
2023-03-27T15:45:11.159Z,1.27
2023-03-27T15:50:18.330Z,2.42
2023-03-27T15:55:25.757Z,2.62
2023-03-27T16:00:33.033Z,1.27
2023-03-27T16:05:40.446Z,1.62
2023-03-27T16:10:47.690Z,2.73
2023-03-27T16:15:55.352Z,1.91
2023-03-27T16:21:05.236Z,1.98
2023-03-27T16:26:09.498Z,1.92
2023-03-27T16:31:16.854Z,2.02
2023-03-27T16:36:24.129Z,3.94
2023-03-27T16:41:31.495Z,1.84
2023-03-27T16:46:40.246Z,1.57
2023-03-27T16:51:47.356Z,2.32
2023-03-27T16:56:55.101Z,6.36
2023-03-27T17:02:02.363Z,2.88
2023-03-27T17:07:09.798Z,2.13
2023-03-27T17:12:17.250Z,2.90
2023-03-27T17:17:24.650Z,4.63
2023-03-27T17:22:31.938Z,3.04
2023-03-27T17:27:39.298Z,17.80
2023-03-27T17:32:46.757Z,38.31
2023-03-27T17:37:54.231Z,4.27
2023-03-27T17:43:01.602Z,7.56
2023-03-27T17:48:09.213Z,3.91
2023-03-27T17:53:16.515Z,2.91
2023-03-27T17:58:23.898Z,3.43
2023-03-27T18:03:31.197Z,2.34
2023-03-27T18:08:38.625Z,4.20
2023-03-27T18:13:45.850Z,3.04
2023-03-27T18:18:53.217Z,2.71
2023-03-27T18:24:00.391Z,3.47
2023-03-27T18:29:07.817Z,2.11
2023-03-27T18:34:14.975Z,1.63
2023-03-27T18:39:22.555Z,2.62
2023-03-27T18:44:31.333Z,1.96
2023-03-27T18:49:38.916Z,1.96
2023-03-27T18:54:46.180Z,3.93
2023-03-27T18:59:53.716Z,1.67
2023-03-27T19:05:00.880Z,3.11
2023-03-27T19:10:08.268Z,3.68
2023-03-27T19:20:22.716Z,4.19
2023-03-27T19:25:30.069Z,2.89
2023-03-27T19:30:37.550Z,5.08
2023-03-27T19:35:44.724Z,5.22
2023-03-27T19:40:52.128Z,3.87
2023-03-27T19:46:14.086Z,5.80
2023-03-27T19:51:06.628Z,4.06
2023-03-27T19:56:14.486Z,3.69
2023-03-27T20:01:22.126Z,2.88
2023-03-27T20:06:29.359Z,3.10
2023-03-27T20:11:36.932Z,2.15
2023-03-27T20:16:44.085Z,4.30
2023-03-27T20:21:51.524Z,2.86
2023-03-27T20:26:59.053Z,4.67
2023-03-27T20:32:08.842Z,4.68
2023-03-27T20:37:13.527Z,4.04
2023-03-27T20:42:20.937Z,4.54
2023-03-27T20:47:28.345Z,3.06
2023-03-27T20:52:35.607Z,2.69
2023-03-27T20:57:42.936Z,2.78
2023-03-27T21:02:50.651Z,3.56
2023-03-27T21:07:57.874Z,5.57
2023-03-27T21:13:08.142Z,2.15
2023-03-27T21:18:05.500Z,2.99
2023-03-27T21:23:12.735Z,2.50
2023-03-27T21:28:20.036Z,4.65
2023-03-27T21:33:28.839Z,2.65
2023-03-27T21:38:35.147Z,2.11
2023-03-27T21:43:42.689Z,3.02
2023-03-27T21:48:49.950Z,3.22
2023-03-27T21:53:57.370Z,2.33
2023-03-27T21:59:04.834Z,5.15
2023-03-27T22:04:12.364Z,3.57
2023-03-27T22:09:19.715Z,2.01
2023-03-27T22:14:27.045Z,2.34
2023-03-27T22:19:36.073Z,1.93
2023-03-27T22:24:43.499Z,2.80
2023-03-27T22:29:50.898Z,2.42
2023-03-27T22:34:58.248Z,2.26
2023-03-27T22:40:05.462Z,2.07
2023-03-27T22:45:12.774Z,1.70
2023-03-27T22:50:20.183Z,2.10
2023-03-27T22:55:27.570Z,1.79
2023-03-27T23:00:34.865Z,1.72
2023-03-27T23:05:42.377Z,2.50
2023-03-27T23:10:49.667Z,1.93
2023-03-27T23:15:57.333Z,2.71
2023-03-27T23:21:04.373Z,2.32
2023-03-27T23:26:11.884Z,1.70
2023-03-27T23:31:19.464Z,1.87
2023-03-27T23:36:26.788Z,1.66
2023-03-27T23:41:34.045Z,3.84
2023-03-27T23:46:41.341Z,2.42
2023-03-27T23:51:48.697Z,2.00
2023-03-27T23:56:56.065Z,1.78
